Time;durP1;ratioP1;P1;durP2;ratioP2;P2;SDS_P1;SDS_P2;PMS_P1;PMS_P2;Temp;Humidity;BMP_temperature;BMP_pressure;BME280_temperature;BME280_humidity;BME280_pressure;Samples;Min_cycle;Max_cycle;Signal;HPM_P1;HPM_P2
2021/03/04 00:00:29;;;;;;;49.33;28.25;;;;;;;10.32;65.32;100637.63;4996176;28;20410;-55
2021/03/04 00:02:57;;;;;;;48.78;27.48;;;;;;;10.32;65.17;100632.44;4994476;28;20038;-55
2021/03/04 00:05:23;;;;;;;48.78;28.05;;;;;;;10.31;65.25;100630.69;4994882;28;20042;-54
2021/03/04 00:07:55;;;;;;;57.25;26.42;;;;;;;10.30;65.25;100621.16;4994724;28;20030;-55
2021/03/04 00:10:24;;;;;;;51.85;27.15;;;;;;;10.29;65.49;100624.56;4994919;28;20112;-55
2021/03/04 00:12:52;;;;;;;50.10;28.38;;;;;;;10.28;65.57;100622.81;4994305;28;20030;-55
2021/03/04 00:15:21;;;;;;;49.50;25.98;;;;;;;10.29;65.58;100627.16;4995808;28;20049;-55
2021/03/04 00:17:50;;;;;;;47.58;26.35;;;;;;;10.29;65.44;100618.50;4995899;28;20096;-54
2021/03/04 00:20:25;;;;;;;51.17;28.67;;;;;;;10.28;65.44;100621.94;4996026;28;20117;-55
2021/03/04 00:22:51;;;;;;;54.95;26.33;;;;;;;10.27;65.64;100623.66;4995641;28;20038;-55
2021/03/04 00:25:21;;;;;;;50.45;27.35;;;;;;;10.27;65.78;100613.28;4994606;28;20035;-54
2021/03/04 00:27:49;;;;;;;46.70;29.27;;;;;;;10.27;65.74;100613.28;4995154;28;20516;-55
2021/03/04 00:30:17;;;;;;;47.38;27.38;;;;;;;10.26;65.86;100605.50;4995652;28;20169;-55
2021/03/04 00:32:43;;;;;;;48.95;26.92;;;;;;;10.24;65.72;100600.25;4995415;28;20034;-55
2021/03/04 00:35:14;;;;;;;41.70;26.50;;;;;;;10.24;65.54;100600.25;4995457;28;20493;-55
2021/03/04 00:37:43;;;;;;;51.75;27.23;;;;;;;10.24;65.65;100602.84;4995751;28;20038;-54
2021/03/04 00:40:18;;;;;;;44.47;27.25;;;;;;;10.20;65.61;100594.13;4994108;28;20038;-55
2021/03/04 00:42:47;;;;;;;47.70;27.70;;;;;;;10.20;65.90;100588.94;4994210;28;20132;-54
2021/03/04 00:45:18;;;;;;;52.00;30.45;;;;;;;10.20;65.81;100603.59;4994212;28;20065;-56
2021/03/04 00:47:46;;;;;;;51.55;26.92;;;;;;;10.18;66.03;100590.59;4978222;28;20390;-54
2021/03/04 00:50:17;;;;;;;50.30;28.67;;;;;;;10.18;65.96;100587.16;4995085;28;20065;-54
2021/03/04 00:52:45;;;;;;;53.55;28.27;;;;;;;10.18;65.85;100594.94;4994786;28;20041;-54
2021/03/04 00:55:14;;;;;;;49.47;29.05;;;;;;;10.17;65.93;100599.22;4994750;28;20038;-55
2021/03/04 00:57:40;;;;;;;52.53;28.73;;;;;;;10.17;66.11;100599.22;4994318;28;20057;-54
2021/03/04 01:00:09;;;;;;;56.15;29.27;;;;;;;10.16;66.26;100594.00;5010317;28;20066;-55
2021/03/04 01:02:35;;;;;;;47.53;28.20;;;;;;;10.15;66.22;100597.44;4993731;28;20494;-55
2021/03/04 01:05:06;;;;;;;47.67;30.27;;;;;;;10.14;66.16;100603.44;4995002;28;20061;-55
2021/03/04 01:07:34;;;;;;;48.63;28.98;;;;;;;10.13;66.22;100601.69;4993300;28;20034;-55
2021/03/04 01:10:04;;;;;;;47.67;28.13;;;;;;;10.13;66.46;100591.31;4994871;28;20050;-55
2021/03/04 01:12:36;;;;;;;48.50;28.23;;;;;;;10.12;66.23;100590.44;4994887;28;20042;-54
2021/03/04 01:15:10;;;;;;;53.13;28.40;;;;;;;10.11;66.14;100583.53;4994947;28;20038;-54
2021/03/04 01:17:35;;;;;;;52.30;28.90;;;;;;;10.12;66.07;100580.06;4994868;28;20042;-55
2021/03/04 01:20:01;;;;;;;50.60;30.73;;;;;;;10.13;66.04;100575.78;4994693;28;20126;-55
2021/03/04 01:22:26;;;;;;;55.17;32.05;;;;;;;10.13;66.21;100568.00;4994776;28;20034;-54
2021/03/04 01:24:57;;;;;;;50.25;29.38;;;;;;;10.13;66.28;100563.69;4992972;28;20032;-54
2021/03/04 01:27:22;;;;;;;50.65;30.75;;;;;;;10.14;66.21;100564.59;4994382;28;20429;-54
2021/03/04 01:29:51;;;;;;;51.95;30.20;;;;;;;10.12;66.42;100555.91;5009734;28;20030;-55
2021/03/04 01:32:19;;;;;;;50.33;30.58;;;;;;;10.11;66.48;100552.44;4994792;28;20069;-54
2021/03/04 01:34:44;;;;;;;49.88;30.23;;;;;;;10.13;66.45;100550.75;4993294;28;20061;-54
2021/03/04 01:37:12;;;;;;;49.55;30.80;;;;;;;10.11;66.35;100539.50;4992852;28;20513;-54
2021/03/04 01:39:43;;;;;;;52.63;30.73;;;;;;;10.11;66.73;100538.59;4994039;28;20030;-54
2021/03/04 01:42:11;;;;;;;49.03;31.88;;;;;;;10.11;66.22;100534.31;4993178;28;20053;-54
2021/03/04 01:44:40;;;;;;;50.97;31.38;;;;;;;10.10;66.39;100534.25;4994518;28;20037;-55
2021/03/04 01:47:07;;;;;;;62.65;32.47;;;;;;;10.10;66.58;100534.25;4993873;28;20042;-55
2021/03/04 01:49:40;;;;;;;55.70;29.77;;;;;;;10.08;66.38;100531.66;4994240;28;20038;-55
2021/03/04 01:52:10;;;;;;;55.13;32.25;;;;;;;10.08;66.57;100530.75;4994722;28;20041;-55
2021/03/04 01:54:37;;;;;;;47.83;28.65;;;;;;;10.05;66.64;100521.19;4994412;28;20034;-55
2021/03/04 01:57:06;;;;;;;48.63;30.92;;;;;;;10.07;66.52;100522.13;4992546;28;20045;-54
2021/03/04 01:59:36;;;;;;;48.90;30.75;;;;;;;10.08;66.71;100515.22;4993799;28;20034;-54
2021/03/04 02:02:05;;;;;;;55.40;31.70;;;;;;;10.08;66.42;100504.84;4992433;28;20038;-55
2021/03/04 02:04:36;;;;;;;50.40;31.95;;;;;;;10.08;66.20;100508.34;4994272;28;20070;-55
2021/03/04 02:07:15;;;;;;;54.88;29.60;;;;;;;10.06;66.65;100500.50;4994237;28;20097;-55
2021/03/04 02:09:46;;;;;;;49.78;30.65;;;;;;;10.05;66.81;100503.06;4992857;28;20085;-55
2021/03/04 02:12:27;;;;;;;53.83;30.38;;;;;;;10.05;66.65;100503.06;4992625;28;20038;-55
2021/03/04 02:15:10;;;;;;;51.45;29.88;;;;;;;10.04;66.54;100501.31;4993336;28;20041;-54
2021/03/04 02:17:40;;;;;;;46.78;29.55;;;;;;;10.04;66.90;100503.91;4993967;28;20057;-54
2021/03/04 02:20:36;;;;;;;52.05;31.58;;;;;;;10.02;66.83;100492.63;4993970;28;20064;-54
2021/03/04 02:23:28;;;;;;;50.45;30.15;;;;;;;10.01;66.60;100496.06;4944031;28;20490;-54
2021/03/04 02:26:18;;;;;;;57.28;33.42;;;;;;;10.00;66.89;100487.44;4992543;28;20040;-55
2021/03/04 02:28:47;;;;;;;48.45;27.95;;;;;;;10.01;67.01;100489.19;4992852;28;20105;-55
2021/03/04 02:31:16;;;;;;;47.40;29.08;;;;;;;10.02;67.18;100493.53;4993873;28;20482;-54
2021/03/04 02:33:50;;;;;;;44.42;30.05;;;;;;;10.02;67.11;100496.13;4992358;28;20386;-54
2021/03/04 02:36:19;;;;;;;48.50;29.55;;;;;;;10.04;66.97;100506.50;4996333;28;20070;-55
2021/03/04 02:38:45;;;;;;;43.72;28.27;;;;;;;10.04;66.94;100512.53;4997738;28;20030;-54
2021/03/04 02:41:16;;;;;;;47.13;29.60;;;;;;;10.02;66.97;100506.47;4997834;28;20112;-54
2021/03/04 02:43:43;;;;;;;46.55;30.20;;;;;;;10.03;66.90;100500.47;4996333;28;20486;-55
2021/03/04 02:46:10;;;;;;;45.35;28.42;;;;;;;10.01;66.99;100489.19;4997479;28;20401;-54
2021/03/04 02:48:42;;;;;;;53.45;30.67;;;;;;;10.01;67.09;100485.69;4997471;28;20058;-54
2021/03/04 02:51:09;;;;;;;52.60;30.33;;;;;;;10.00;66.96;100482.25;4997685;28;20073;-55
2021/03/04 02:53:37;;;;;;;60.47;33.05;;;;;;;10.01;66.87;100477.94;4997572;28;20093;-54
2021/03/04 02:56:07;;;;;;;51.95;33.78;;;;;;;9.99;66.97;100475.31;4996355;28;20042;-55
2021/03/04 02:58:39;;;;;;;63.13;34.58;;;;;;;10.01;66.93;100471.06;4997866;28;20070;-54
2021/03/04 03:01:09;;;;;;;64.40;36.95;;;;;;;9.99;67.13;100470.13;4995838;28;20042;-54
2021/03/04 03:03:37;;;;;;;58.00;35.03;;;;;;;10.01;67.07;100463.28;4995363;28;20105;-54
2021/03/04 03:06:08;;;;;;;54.45;35.40;;;;;;;10.01;67.07;100462.38;4997453;28;20504;-54
2021/03/04 03:08:41;;;;;;;55.88;34.60;;;;;;;9.99;67.04;100456.28;4997202;28;20042;-54
2021/03/04 03:11:10;;;;;;;57.97;35.17;;;;;;;10.00;66.96;100450.28;4995471;28;20045;-54
2021/03/04 03:13:43;;;;;;;53.63;34.47;;;;;;;9.99;67.02;100452.00;4997431;28;20038;-54
2021/03/04 03:16:12;;;;;;;65.05;37.83;;;;;;;9.99;66.89;100444.25;4996800;28;20030;-54
2021/03/04 03:18:41;;;;;;;61.00;36.30;;;;;;;9.98;67.23;100445.06;4995957;28;20046;-55
2021/03/04 03:21:10;;;;;;;59.40;36.25;;;;;;;9.98;67.21;100447.66;4996884;28;20486;-54
2021/03/04 03:23:36;;;;;;;56.70;37.35;;;;;;;9.97;67.20;100442.44;4996819;28;20045;-54
2021/03/04 03:26:04;;;;;;;66.53;37.67;;;;;;;9.95;67.07;100437.22;5012755;28;20042;-54
2021/03/04 03:28:32;;;;;;;56.20;37.20;;;;;;;9.94;67.36;100440.66;4995524;28;20136;-55
2021/03/04 03:31:00;;;;;;;54.90;35.28;;;;;;;9.94;67.37;100440.66;4995483;28;20089;-54
2021/03/04 03:33:27;;;;;;;57.78;38.40;;;;;;;9.94;67.20;100447.56;4996604;28;20041;-55
2021/03/04 03:36:00;;;;;;;56.67;36.00;;;;;;;9.93;67.23;100461.34;4996365;28;20041;-54
2021/03/04 03:38:30;;;;;;;58.88;37.60;;;;;;;9.92;67.28;100455.25;4996992;28;20038;-55
2021/03/04 03:40:57;;;;;;;57.28;38.70;;;;;;;9.90;67.39;100468.19;4996613;28;20494;-54
2021/03/04 03:43:26;;;;;;;61.10;39.20;;;;;;;9.89;67.80;100466.44;4995141;28;20124;-55
2021/03/04 03:45:55;;;;;;;61.58;38.45;;;;;;;9.88;67.82;100461.22;4994489;28;20038;-55
2021/03/04 03:48:29;;;;;;;71.97;39.63;;;;;;;9.88;67.64;100477.63;4996210;28;20046;-55
2021/03/04 03:50:59;;;;;;;60.03;39.50;;;;;;;9.88;67.53;100472.44;4995684;28;20405;-55
2021/03/04 03:53:34;;;;;;;61.28;39.10;;;;;;;9.87;67.66;100470.69;4996119;28;20030;-55
2021/03/04 03:56:02;;;;;;;62.10;40.33;;;;;;;9.86;67.58;100463.75;4995368;28;20445;-54
2021/03/04 03:58:31;;;;;;;62.10;37.40;;;;;;;9.87;67.89;100477.59;4996450;28;20042;-55
2021/03/04 04:01:00;;;;;;;62.65;39.88;;;;;;;9.87;67.77;100481.03;4996245;28;20031;-56
2021/03/04 04:03:29;;;;;;;60.83;39.50;;;;;;;9.86;67.84;100476.69;4996188;28;20057;-54
2021/03/04 04:05:58;;;;;;;63.67;40.28;;;;;;;9.86;67.84;100476.69;4996184;28;20390;-54
2021/03/04 04:08:25;;;;;;;61.55;40.13;;;;;;;9.87;67.92;100475.00;4995936;28;20129;-56
2021/03/04 04:10:56;;;;;;;61.75;42.05;;;;;;;9.87;67.74;100487.94;4979106;28;20070;-54
2021/03/04 04:13:27;;;;;;;67.38;40.72;;;;;;;9.86;67.83;100481.03;4996003;28;20117;-54
2021/03/04 04:15:52;;;;;;;67.13;41.67;;;;;;;9.86;67.94;100473.25;4995711;28;20035;-54
2021/03/04 04:18:21;;;;;;;59.00;39.70;;;;;;;9.86;67.93;100470.66;4995537;28;20037;-55
2021/03/04 04:20:53;;;;;;;62.17;42.47;;;;;;;9.85;67.95;100477.53;4978237;28;20035;-55
2021/03/04 04:23:22;;;;;;;66.43;40.53;;;;;;;9.86;68.12;100478.44;4978162;28;20092;-55
2021/03/04 04:25:52;;;;;;;65.32;43.45;;;;;;;9.85;67.80;100477.53;4994470;28;20030;-54
2021/03/04 04:28:19;;;;;;;75.75;43.15;;;;;;;9.85;68.12;100469.78;4978028;28;20456;-55
2021/03/04 04:30:47;;;;;;;70.93;43.55;;;;;;;9.86;68.04;100473.25;4995434;28;20042;-54
2021/03/04 04:33:16;;;;;;;64.90;43.67;;;;;;;9.84;68.08;100468.00;4978253;28;20042;-54
2021/03/04 04:35:44;;;;;;;69.18;43.80;;;;;;;9.83;68.21;100465.41;4961858;28;20034;-54
2021/03/04 04:38:11;;;;;;;69.75;42.58;;;;;;;9.84;68.11;100459.38;4995538;28;20042;-54
2021/03/04 04:40:39;;;;;;;64.53;42.92;;;;;;;9.84;67.97;100469.75;4978349;28;20046;-55
2021/03/04 04:43:11;;;;;;;63.85;43.05;;;;;;;9.84;68.03;100464.56;4995656;28;20035;-55
2021/03/04 04:45:42;;;;;;;56.15;39.60;;;;;;;9.85;67.83;100469.78;4995616;28;20066;-56
2021/03/04 04:48:07;;;;;;;61.95;41.17;;;;;;;9.84;67.97;100459.38;4978146;28;20380;-55
2021/03/04 04:50:39;;;;;;;57.17;36.60;;;;;;;9.84;68.28;100456.81;4995444;28;20049;-54
2021/03/04 04:53:04;;;;;;;51.63;34.33;;;;;;;9.83;68.39;100462.81;4995232;28;20065;-55
2021/03/04 04:55:32;;;;;;;54.50;33.65;;;;;;;9.83;68.25;100458.50;4977428;28;20588;-54
2021/03/04 04:58:03;;;;;;;44.20;30.63;;;;;;;9.82;68.61;100450.69;4994344;28;20497;-55
2021/03/04 05:00:29;;;;;;;43.30;28.20;;;;;;;9.83;68.63;100449.88;4977745;28;20399;-56
2021/03/04 05:02:54;;;;;;;42.22;27.42;;;;;;;9.84;68.56;100456.81;4994880;28;20494;-55
2021/03/04 05:05:20;;;;;;;36.15;25.58;;;;;;;9.83;68.25;100458.50;4994833;28;20121;-55
2021/03/04 05:07:51;;;;;;;37.72;23.92;;;;;;;9.81;68.51;100457.56;4994747;28;20038;-54
2021/03/04 05:10:19;;;;;;;38.85;23.58;;;;;;;9.82;68.47;100445.53;4977271;28;20501;-54
2021/03/04 05:12:46;;;;;;;36.63;23.90;;;;;;;9.82;68.64;100445.53;4994675;28;20069;-55
2021/03/04 05:15:12;;;;;;;39.38;22.63;;;;;;;9.83;68.71;100436.94;4994745;28;20034;-54
2021/03/04 05:17:39;;;;;;;34.45;21.33;;;;;;;9.82;68.71;100422.22;4994813;28;20062;-54
2021/03/04 05:20:13;;;;;;;28.45;21.38;;;;;;;9.81;68.92;100416.16;4977840;28;20081;-55
2021/03/04 05:22:38;;;;;;;32.35;21.00;;;;;;;9.82;68.69;100406.69;4977288;28;20042;-54
2021/03/04 05:25:07;;;;;;;29.90;20.48;;;;;;;9.82;68.48;100404.09;4977282;28;20184;-54
2021/03/04 05:27:38;;;;;;;32.65;19.88;;;;;;;9.81;68.63;100403.22;4977304;28;20500;-55
2021/03/04 05:30:09;;;;;;;27.05;19.10;;;;;;;9.81;68.65;100397.19;4994401;28;20038;-55
2021/03/04 05:32:40;;;;;;;32.63;18.67;;;;;;;9.82;68.72;100404.09;4977750;28;20521;-55
2021/03/04 05:35:08;;;;;;;34.58;19.02;;;;;;;9.81;68.95;100387.69;4976811;28;20030;-55
2021/03/04 05:37:42;;;;;;;28.80;18.85;;;;;;;9.80;68.71;100380.78;4994419;28;20046;-54
2021/03/04 05:40:11;;;;;;;23.58;16.45;;;;;;;9.79;69.22;100368.69;4994278;28;20044;-55
2021/03/04 05:42:44;;;;;;;28.50;17.27;;;;;;;9.79;68.73;100360.00;4994426;28;20039;-55
2021/03/04 05:45:19;;;;;;;26.43;17.33;;;;;;;9.79;68.72;100354.84;4977262;28;20030;-55
2021/03/04 05:47:49;;;;;;;23.02;16.42;;;;;;;9.79;69.18;100354.84;4994263;28;20281;-54
2021/03/04 05:50:21;;;;;;;22.75;15.93;;;;;;;9.80;69.10;100369.53;4976948;28;20066;-54
2021/03/04 05:52:54;;;;;;;20.10;14.00;;;;;;;9.79;69.10;100357.44;4994474;28;20422;-54
2021/03/04 05:55:27;;;;;;;23.08;14.25;;;;;;;9.77;68.95;100357.41;4976831;28;20034;-56
2021/03/04 05:57:57;;;;;;;27.48;15.95;;;;;;;9.78;69.12;100358.25;4976995;28;20034;-55
2021/03/04 06:00:28;;;;;;;25.42;15.30;;;;;;;9.77;69.08;100349.63;4994104;28;20034;-54
2021/03/04 06:02:54;;;;;;;22.52;13.38;;;;;;;9.77;69.15;100341.88;4993778;28;20046;-55
2021/03/04 06:05:25;;;;;;;28.17;14.93;;;;;;;9.76;69.17;100340.13;4993923;28;20042;-54
2021/03/04 06:08:01;;;;;;;21.90;14.00;;;;;;;9.75;69.22;100335.78;4994359;28;20038;-54
2021/03/04 06:10:40;;;;;;;20.65;13.13;;;;;;;9.74;69.25;100342.66;4993770;28;20108;-55
2021/03/04 06:13:08;;;;;;;18.90;12.23;;;;;;;9.74;69.03;100334.03;4976770;28;20034;-55
2021/03/04 06:15:33;;;;;;;20.73;12.68;;;;;;;9.74;69.46;100327.13;4993887;28;20031;-54
2021/03/04 06:18:02;;;;;;;23.33;13.43;;;;;;;9.73;69.35;100325.38;4960391;28;20046;-54
2021/03/04 06:20:40;;;;;;;19.48;13.10;;;;;;;9.72;69.57;100326.25;4994253;28;20038;-55
2021/03/04 06:23:06;;;;;;;20.85;14.27;;;;;;;9.73;69.25;100322.78;4993721;28;20066;-54
2021/03/04 06:25:35;;;;;;;22.00;13.73;;;;;;;9.73;69.44;100321.91;4976736;28;20108;-55
2021/03/04 06:28:12;;;;;;;23.35;14.40;;;;;;;9.72;69.33;100323.66;4994322;28;20030;-55
2021/03/04 06:30:48;;;;;;;20.95;13.10;;;;;;;9.69;69.33;100320.97;4994263;28;20496;-55
2021/03/04 06:33:36;;;;;;;24.27;14.43;;;;;;;9.69;69.39;100323.56;4993868;28;20046;-54
2021/03/04 06:36:19;;;;;;;23.27;15.35;;;;;;;9.69;69.40;100320.09;4993822;28;20074;-54
2021/03/04 06:38:55;;;;;;;21.73;15.05;;;;;;;9.68;69.53;100314.06;4976356;28;20478;-54
2021/03/04 06:41:28;;;;;;;20.38;14.55;;;;;;;9.69;69.47;100315.81;4993792;28;20054;-55
2021/03/04 06:44:03;;;;;;;21.88;14.32;;;;;;;9.67;69.40;100314.00;4993297;28;20033;-54
2021/03/04 06:46:34;;;;;;;24.92;14.45;;;;;;;9.67;69.57;100322.66;4976570;28;20129;-55
2021/03/04 06:48:59;;;;;;;25.45;15.52;;;;;;;9.68;69.45;100316.66;4993899;28;20518;-55
2021/03/04 06:51:25;;;;;;;23.48;14.77;;;;;;;9.68;69.46;100321.81;4976342;28;20042;-54
2021/03/04 06:53:58;;;;;;;23.67;14.75;;;;;;;9.68;69.64;100323.50;4993723;28;20038;-55
2021/03/04 06:56:29;;;;;;;25.45;13.25;;;;;;;9.68;69.64;100323.50;4976380;28;20034;-54
2021/03/04 06:59:04;;;;;;;23.65;14.50;;;;;;;9.66;69.37;100312.25;4993532;28;20476;-54
2021/03/04 07:01:39;;;;;;;25.80;12.70;;;;;;;9.67;69.79;100321.75;4992437;28;20437;-54
2021/03/04 07:04:12;;;;;;;24.35;13.85;;;;;;;9.66;69.55;100320.91;4976276;28;20030;-54
2021/03/04 07:06:44;;;;;;;20.02;11.80;;;;;;;9.66;69.60;100325.19;4994221;28;20045;-54
2021/03/04 07:09:10;;;;;;;25.85;13.27;;;;;;;9.66;69.63;100320.00;4976211;28;20042;-55
2021/03/04 07:11:39;;;;;;;18.90;12.07;;;;;;;9.66;69.51;100320.91;4993255;28;20096;-55
2021/03/04 07:14:08;;;;;;;22.33;13.05;;;;;;;9.66;69.81;100317.41;4976493;28;20372;-54
2021/03/04 07:16:46;;;;;;;25.60;14.27;;;;;;;9.65;69.84;100310.53;4993406;28;20038;-55
2021/03/04 07:19:17;;;;;;;21.02;11.93;;;;;;;9.65;69.74;100313.13;4976116;28;20037;-54
2021/03/04 07:21:55;;;;;;;26.98;12.35;;;;;;;9.65;69.63;100305.34;4994694;28;20034;-55
2021/03/04 07:24:21;;;;;;;22.40;12.80;;;;;;;9.66;69.87;100307.97;4997583;28;20046;-54
2021/03/04 07:26:50;;;;;;;27.77;14.25;;;;;;;9.66;69.78;100307.97;4996472;28;20041;-55
2021/03/04 07:29:19;;;;;;;20.88;12.52;;;;;;;9.66;69.88;100305.38;4979364;28;20095;-56
2021/03/04 07:31:47;;;;;;;22.38;13.95;;;;;;;9.67;69.67;100309.72;4979479;28;20030;-54
2021/03/04 07:34:17;;;;;;;25.25;14.05;;;;;;;9.66;69.87;100309.66;4978808;28;20035;-54
2021/03/04 07:36:49;;;;;;;28.20;16.25;;;;;;;9.65;69.59;100307.94;4996749;28;20044;-54
2021/03/04 07:39:29;;;;;;;26.38;14.88;;;;;;;9.66;69.95;100309.66;4997215;28;20153;-54
2021/03/04 07:41:56;;;;;;;27.95;15.68;;;;;;;9.67;69.90;100319.19;4963161;28;20052;-55
2021/03/04 07:44:30;;;;;;;34.75;15.43;;;;;;;9.67;69.70;100321.75;4979138;28;20534;-54
2021/03/04 07:46:58;;;;;;;31.77;15.43;;;;;;;9.68;69.98;100328.69;4978634;28;20038;-55
2021/03/04 07:49:30;;;;;;;24.33;16.55;;;;;;;9.68;70.16;100329.59;4978799;28;20041;-54
2021/03/04 07:52:08;;;;;;;26.48;16.77;;;;;;;9.68;69.85;100327.00;4979264;28;20129;-54
2021/03/04 07:54:34;;;;;;;27.38;17.27;;;;;;;9.71;70.22;100323.59;4978612;28;20130;-54
2021/03/04 07:57:13;;;;;;;22.88;16.35;;;;;;;9.70;69.70;100327.91;4978582;28;20034;-54
2021/03/04 08:00:02;;;;;;;26.67;16.85;;;;;;;9.71;70.01;100329.66;4996239;28;20100;-55
2021/03/04 08:02:33;;;;;;;31.75;17.33;;;;;;;9.72;69.85;100333.13;4966404;28;20141;-54
2021/03/04 08:05:15;;;;;;;35.92;17.42;;;;;;;9.71;70.08;100328.78;4975618;28;20037;-55
2021/03/04 08:07:48;;;;;;;23.15;15.07;;;;;;;9.70;70.39;100325.31;4959406;28;20049;-55
2021/03/04 08:10:21;;;;;;;22.15;14.93;;;;;;;9.72;69.99;100323.66;4975936;28;20043;-55
2021/03/04 08:13:04;;;;;;;22.77;16.50;;;;;;;9.72;69.83;100320.16;4977050;28;20035;-55
2021/03/04 08:15:31;;;;;;;25.92;15.07;;;;;;;9.73;69.89;100321.91;4975056;28;20041;-55
2021/03/04 08:17:57;;;;;;;28.15;17.05;;;;;;;9.73;69.98;100327.97;4975163;28;20065;-55
2021/03/04 08:20:23;;;;;;;26.92;18.67;;;;;;;9.73;70.42;100325.38;4976168;28;20042;-54
2021/03/04 08:22:53;;;;;;;29.38;19.38;;;;;;;9.74;70.14;100328.84;4975253;28;20031;-55
2021/03/04 08:25:29;;;;;;;30.48;19.35;;;;;;;9.73;70.53;100329.69;4976023;28;20490;-54
2021/03/04 08:27:59;;;;;;;31.70;20.55;;;;;;;9.74;70.38;100323.69;4976248;28;20046;-55
2021/03/04 08:30:37;;;;;;;29.15;18.75;;;;;;;9.74;70.09;100328.84;4976341;28;20494;-55
2021/03/04 08:33:08;;;;;;;28.85;19.10;;;;;;;9.74;70.47;100321.94;4976738;28;20149;-54
2021/03/04 08:35:36;;;;;;;44.28;20.60;;;;;;;9.74;70.43;100316.78;4975973;28;20046;-55
2021/03/04 08:38:11;;;;;;;34.97;21.23;;;;;;;9.74;70.37;100306.41;4976238;28;20038;-55
2021/03/04 08:40:46;;;;;;;26.50;18.60;;;;;;;9.75;70.19;100313.34;4976156;28;20035;-54
2021/03/04 08:43:15;;;;;;;31.83;21.08;;;;;;;9.73;70.28;100307.25;4974717;28;20042;-55
2021/03/04 08:45:49;;;;;;;33.45;21.90;;;;;;;9.74;70.42;100302.97;4974828;28;20042;-55
2021/03/04 08:48:17;;;;;;;30.05;20.52;;;;;;;9.74;70.39;100306.41;4974747;28;20034;-55
2021/03/04 08:50:50;;;;;;;28.63;20.95;;;;;;;9.74;70.45;100311.59;4975928;28;20066;-55
2021/03/04 08:53:20;;;;;;;31.45;21.33;;;;;;;9.75;70.46;100305.59;4974909;28;20406;-56
2021/03/04 08:55:56;;;;;;;37.05;23.45;;;;;;;9.76;70.50;100314.25;4974070;28;20066;-55
2021/03/04 08:58:29;;;;;;;37.75;22.65;;;;;;;9.77;70.56;100307.34;4975933;28;20039;-54
2021/03/04 09:01:03;;;;;;;29.83;21.10;;;;;;;9.75;70.53;100302.13;4974685;28;20101;-55
2021/03/04 09:03:37;;;;;;;32.78;21.25;;;;;;;9.75;70.43;100303.00;4994060;28;20054;-54
2021/03/04 09:06:10;;;;;;;34.55;21.60;;;;;;;9.76;70.53;100296.13;4977722;28;20092;-55
2021/03/04 09:08:46;;;;;;;38.47;23.48;;;;;;;9.75;70.73;100297.81;4995416;28;20082;-55
2021/03/04 09:11:32;;;;;;;39.13;24.63;;;;;;;9.75;70.41;100295.22;4977827;28;20038;-55
2021/03/04 09:14:01;;;;;;;37.85;24.27;;;;;;;9.76;70.57;100296.13;4977530;28;20096;-54
2021/03/04 09:16:27;;;;;;;36.58;22.77;;;;;;;9.76;70.71;100298.72;4994787;28;20129;-54
2021/03/04 09:18:52;;;;;;;42.08;25.67;;;;;;;9.75;70.22;100295.22;4977443;28;20214;-54
2021/03/04 09:21:18;;;;;;;38.08;25.40;;;;;;;9.74;70.51;100295.22;4994935;28;20073;-56
2021/03/04 09:23:47;;;;;;;36.70;23.90;;;;;;;9.74;70.69;100293.47;4961405;28;20132;-55
2021/03/04 09:26:16;;;;;;;34.58;21.50;;;;;;;9.75;70.53;100300.41;4994537;28;20034;-54
2021/03/04 09:28:44;;;;;;;27.80;20.25;;;;;;;9.74;70.51;100301.25;4994459;28;20034;-54
2021/03/04 09:31:14;;;;;;;36.00;18.80;;;;;;;9.74;70.68;100298.66;4995131;28;20038;-54
2021/03/04 09:33:41;;;;;;;27.70;17.48;;;;;;;9.74;70.51;100303.81;4977102;28;20109;-55
2021/03/04 09:36:12;;;;;;;24.05;16.80;;;;;;;9.75;71.15;100307.31;4994467;28;20039;-55
2021/03/04 09:38:53;;;;;;;24.25;17.20;;;;;;;9.73;70.46;100311.56;4994831;28;20038;-55
2021/03/04 09:41:22;;;;;;;24.92;15.90;;;;;;;9.74;70.63;100309.00;4994542;28;20031;-55
2021/03/04 09:43:55;;;;;;;31.55;19.85;;;;;;;9.71;70.70;100311.56;4993444;28;20405;-55
2021/03/04 09:46:38;;;;;;;32.72;22.77;;;;;;;9.70;70.45;100311.50;4976610;28;20505;-55
2021/03/04 09:49:16;;;;;;;37.88;25.20;;;;;;;9.66;70.57;100320.00;4994661;28;20125;-54
2021/03/04 09:51:45;;;;;;;31.77;23.83;;;;;;;9.65;70.31;100316.56;4976852;28;20042;-54
2021/03/04 09:54:23;;;;;;;36.92;24.10;;;;;;;9.60;70.55;100324.22;4976700;28;20065;-54
2021/03/04 09:57:06;;;;;;;31.05;21.83;;;;;;;9.57;70.60;100318.97;4994223;28;20490;-54
2021/03/04 09:59:47;;;;;;;34.45;23.40;;;;;;;9.56;70.57;100308.59;4976751;28;20393;-55
2021/03/04 10:02:19;;;;;;;34.58;24.17;;;;;;;9.55;70.71;100299.06;4994041;28;20050;-54
2021/03/04 10:05:00;;;;;;;35.45;25.00;;;;;;;9.54;70.84;100305.94;4976296;28;20034;-55
2021/03/04 10:07:32;;;;;;;34.05;22.38;;;;;;;9.53;70.51;100305.91;4976699;28;20042;-54
2021/03/04 10:10:04;;;;;;;35.35;22.13;;;;;;;9.50;70.79;100303.25;4976964;28;20482;-55
2021/03/04 10:12:48;;;;;;;32.58;22.10;;;;;;;9.49;70.83;100296.31;4977225;28;20549;-54
2021/03/04 10:15:46;;;;;;;35.33;23.77;;;;;;;9.48;70.77;100294.56;4993721;28;20038;-54
2021/03/04 10:18:19;;;;;;;31.63;21.70;;;;;;;9.49;70.61;100293.75;4962816;28;20050;-55
2021/03/04 10:20:52;;;;;;;27.85;19.33;;;;;;;9.48;70.89;100302.34;4994272;28;20039;-55
2021/03/04 10:23:23;;;;;;;29.25;20.58;;;;;;;9.49;70.72;100298.91;4994060;28;20093;-55
2021/03/04 10:25:55;;;;;;;27.88;20.67;;;;;;;9.48;70.98;100289.41;4960675;28;20585;-55
2021/03/04 10:28:34;;;;;;;31.83;20.05;;;;;;;9.48;70.97;100304.94;4993948;28;20045;-55
2021/03/04 10:31:05;;;;;;;29.10;20.40;;;;;;;9.47;70.96;100298.00;4994266;28;20034;-54
2021/03/04 10:33:40;;;;;;;25.67;18.10;;;;;;;9.45;70.67;100308.31;4994154;28;20038;-54
2021/03/04 10:36:14;;;;;;;25.75;17.95;;;;;;;9.43;70.62;100316.03;4993769;28;20058;-55
2021/03/04 10:38:42;;;;;;;26.37;17.57;;;;;;;9.42;70.57;100314.28;4976829;28;20038;-54
2021/03/04 10:41:10;;;;;;;24.73;16.73;;;;;;;9.41;70.82;100316.84;4994113;28;20129;-55
2021/03/04 10:43:38;;;;;;;26.15;17.90;;;;;;;9.42;70.96;100313.41;4993966;28;20088;-55
2021/03/04 10:46:08;;;;;;;27.38;17.27;;;;;;;9.41;70.95;100317.72;4977037;28;20486;-54
2021/03/04 10:48:37;;;;;;;27.90;17.25;;;;;;;9.40;70.79;100317.66;4993804;28;20125;-54
2021/03/04 10:51:11;;;;;;;21.67;15.88;;;;;;;9.40;71.01;100322.84;4976734;28;20042;-55
2021/03/04 10:53:45;;;;;;;25.08;16.63;;;;;;;9.38;70.99;100324.50;4977003;28;20034;-54
2021/03/04 10:56:18;;;;;;;22.67;15.18;;;;;;;9.37;71.10;100322.75;4978145;28;20049;-54
2021/03/04 10:58:52;;;;;;;22.60;15.85;;;;;;;9.38;70.81;100327.09;4997420;28;20038;-55
2021/03/04 11:01:23;;;;;;;20.80;13.63;;;;;;;9.33;70.59;100321.81;4996638;28;20030;-55
2021/03/04 11:03:49;;;;;;;17.90;13.43;;;;;;;9.31;70.86;100322.63;4997385;28;20035;-55
2021/03/04 11:06:18;;;;;;;19.85;14.07;;;;;;;9.29;70.83;100320.88;4997464;28;20057;-55
2021/03/04 11:08:48;;;;;;;21.02;14.18;;;;;;;9.27;70.97;100321.66;4997379;28;20038;-55
2021/03/04 11:11:19;;;;;;;19.55;14.55;;;;;;;9.25;71.01;100320.75;4997140;28;20038;-55
2021/03/04 11:13:44;;;;;;;22.65;14.38;;;;;;;9.26;70.93;100319.91;4979793;28;20057;-55
2021/03/04 11:16:12;;;;;;;20.83;13.73;;;;;;;9.19;70.91;100324.03;4996985;28;20038;-55
2021/03/04 11:18:39;;;;;;;22.88;14.40;;;;;;;9.13;71.06;100323.88;4997051;28;20035;-55
2021/03/04 11:21:13;;;;;;;24.13;13.70;;;;;;;9.09;70.85;100322.06;4997007;28;20504;-56
2021/03/04 11:23:39;;;;;;;24.85;13.57;;;;;;;9.08;70.85;100331.53;4996882;28;20487;-55
2021/03/04 11:26:04;;;;;;;20.23;12.48;;;;;;;9.08;71.43;100333.22;4996418;28;20045;-55
2021/03/04 11:28:32;;;;;;;16.35;11.82;;;;;;;9.09;70.73;100335.88;4979356;28;20089;-56
2021/03/04 11:31:03;;;;;;;14.95;10.70;;;;;;;9.08;70.97;100336.72;4996836;28;20082;-56